Time;durP1;ratioP1;P1;durP2;ratioP2;P2;SDS_P1;SDS_P2;PMS_P1;PMS_P2;Temp;Humidity;BMP_temperature;BMP_pressure;BME280_temperature;BME280_humidity;BME280_pressure;Samples;Min_cycle;Max_cycle;Signal;HPM_P1;HPM_P2
2022/08/18 00:01:21;;;;;;;22.65;20.35;;;19.90;99.90;;;;;;5067575;28;20036;-84
2022/08/18 00:03:48;;;;;;;24.15;20.55;;;19.90;99.90;;;;;;5044530;28;20037;-83
2022/08/18 00:06:15;;;;;;;21.67;19.45;;;19.90;99.90;;;;;;5068353;28;20047;-83
2022/08/18 00:08:41;;;;;;;23.35;20.67;;;19.90;99.90;;;;;;5050135;28;20044;-84
2022/08/18 00:11:07;;;;;;;22.40;20.00;;;19.90;99.90;;;;;;5052193;28;20032;-84
2022/08/18 00:13:33;;;;;;;23.67;19.80;;;19.90;99.90;;;;;;5051726;28;20127;-84
2022/08/18 00:15:58;;;;;;;22.77;20.27;;;19.90;99.90;;;;;;5052635;28;20049;-84
2022/08/18 00:18:24;;;;;;;22.45;20.00;;;19.90;99.90;;;;;;5066834;28;20051;-84
2022/08/18 00:20:49;;;;;;;22.88;20.55;;;19.90;99.90;;;;;;5048864;28;20044;-84
2022/08/18 00:23:15;;;;;;;24.77;22.33;;;19.90;99.90;;;;;;5048427;28;20072;-84
2022/08/18 00:25:41;;;;;;;23.48;21.08;;;19.90;99.90;;;;;;5048213;28;20033;-84
2022/08/18 00:28:07;;;;;;;24.33;21.17;;;19.90;99.90;;;;;;5032020;28;20059;-84
2022/08/18 00:30:32;;;;;;;25.00;21.83;;;19.90;99.90;;;;;;5060300;28;20036;-84
2022/08/18 00:32:59;;;;;;;23.45;20.98;;;19.90;99.90;;;;;;5035671;28;20032;-84
2022/08/18 00:35:31;;;;;;;25.98;22.98;;;19.90;99.90;;;;;;5036393;28;20029;-84
2022/08/18 00:37:59;;;;;;;27.10;24.20;;;19.90;99.90;;;;;;5035571;28;20469;-84
2022/08/18 00:40:29;;;;;;;19.20;17.30;;;19.90;99.90;;;;;;5036154;28;20767;-84
2022/08/18 00:42:57;;;;;;;22.55;18.83;;;19.90;99.90;;;;;;5051675;28;20482;-84
2022/08/18 00:45:29;;;;;;;24.88;22.30;;;19.80;99.90;;;;;;5055514;28;20043;-84
2022/08/18 00:47:54;;;;;;;24.23;21.83;;;19.80;99.90;;;;;;5045764;28;20072;-84
2022/08/18 00:50:25;;;;;;;24.67;21.17;;;19.80;99.90;;;;;;5055095;28;20481;-84
2022/08/18 00:53:22;;;;;;;23.58;21.15;;;19.80;99.90;;;;;;5071239;28;20785;-84
2022/08/18 00:55:49;;;;;;;25.02;21.20;;;19.80;99.90;;;;;;5055610;28;20048;-84
2022/08/18 00:58:41;;;;;;;24.90;21.88;;;19.70;99.90;;;;;;5052478;28;20068;-84
2022/08/18 01:01:10;;;;;;;26.58;23.77;;;19.80;99.90;;;;;;5050087;28;20036;-84
2022/08/18 01:03:38;;;;;;;26.65;23.95;;;19.70;99.90;;;;;;5072340;28;20492;-84
2022/08/18 01:06:25;;;;;;;28.90;25.52;;;19.70;99.90;;;;;;5053103;28;20387;-84
2022/08/18 01:08:50;;;;;;;26.13;22.60;;;19.80;99.90;;;;;;5051865;28;20720;-84
2022/08/18 01:11:16;;;;;;;25.65;23.05;;;19.70;99.90;;;;;;5051429;28;20048;-84
2022/08/18 01:13:42;;;;;;;27.10;24.33;;;19.70;99.90;;;;;;5034996;28;20032;-83
2022/08/18 01:21:49;;;;;;;28.55;25.48;;;19.80;99.90;;;;;;5051574;28;20453;-84
2022/08/18 01:24:16;;;;;;;24.77;21.95;;;19.80;99.90;;;;;;5043106;28;20128;-84
2022/08/18 01:26:48;;;;;;;24.30;21.73;;;19.70;99.90;;;;;;5034290;28;20682;-83
2022/08/18 01:29:16;;;;;;;22.63;20.33;;;19.80;99.90;;;;;;5060076;28;20040;-84
2022/08/18 01:31:54;;;;;;;23.83;21.30;;;19.80;99.90;;;;;;5054256;28;20040;-84
2022/08/18 01:34:23;;;;;;;24.45;21.33;;;19.80;99.90;;;;;;5068826;28;20040;-84
2022/08/18 01:36:51;;;;;;;23.42;21.02;;;19.80;99.90;;;;;;5035031;28;20128;-84
2022/08/18 01:39:17;;;;;;;24.60;21.25;;;19.80;99.90;;;;;;5063212;28;20047;-84
2022/08/18 01:41:43;;;;;;;24.70;22.20;;;19.80;99.90;;;;;;5036198;28;20048;-84
2022/08/18 01:44:10;;;;;;;25.05;22.38;;;19.80;99.90;;;;;;5057223;28;20409;-84
2022/08/18 01:46:37;;;;;;;24.98;20.65;;;19.80;99.90;;;;;;5068818;28;20040;-84
2022/08/18 01:49:03;;;;;;;26.30;21.30;;;19.80;99.90;;;;;;5049689;28;20079;-84
2022/08/18 01:51:31;;;;;;;23.67;21.33;;;19.80;99.90;;;;;;5050835;28;20041;-84
2022/08/18 01:53:57;;;;;;;24.10;21.13;;;19.90;99.90;;;;;;5042467;28;20041;-84
2022/08/18 01:56:26;;;;;;;22.65;20.20;;;19.80;99.90;;;;;;5051341;28;20089;-84
2022/08/18 01:58:53;;;;;;;21.88;19.60;;;19.80;99.90;;;;;;5033715;28;20041;-84
2022/08/18 02:01:21;;;;;;;21.13;18.92;;;19.80;99.90;;;;;;5034401;28;20037;-84
2022/08/18 02:03:54;;;;;;;22.27;19.92;;;19.80;99.90;;;;;;5037623;28;20035;-84
2022/08/18 02:06:19;;;;;;;20.05;18.15;;;19.80;99.90;;;;;;5050249;28;20112;-84
2022/08/18 02:08:46;;;;;;;19.65;17.55;;;19.80;99.90;;;;;;5033030;28;20156;-84
2022/08/18 02:11:13;;;;;;;20.70;17.13;;;19.70;99.90;;;;;;5053286;28;20037;-83
2022/08/18 02:13:39;;;;;;;22.55;17.33;;;19.70;99.90;;;;;;5053615;28;20056;-84
2022/08/18 02:16:06;;;;;;;22.70;16.15;;;19.70;99.90;;;;;;5044035;28;20082;-84
2022/08/18 02:18:34;;;;;;;19.40;15.40;;;19.70;99.90;;;;;;5050911;28;20128;-84
2022/08/18 02:21:08;;;;;;;18.85;15.05;;;19.70;99.90;;;;;;5034116;28;20513;-84
2022/08/18 02:23:34;;;;;;;18.92;14.02;;;19.70;99.90;;;;;;5046242;28;20127;-83
2022/08/18 02:26:04;;;;;;;18.70;13.52;;;19.70;99.90;;;;;;5053807;28;20123;-83
2022/08/18 02:28:30;;;;;;;19.85;14.10;;;19.70;99.90;;;;;;5049757;28;20036;-84
2022/08/18 02:30:55;;;;;;;18.73;13.80;;;19.60;99.90;;;;;;5050139;28;20091;-84
2022/08/18 02:33:21;;;;;;;17.13;13.80;;;19.60;99.90;;;;;;5058117;28;20493;-84
2022/08/18 02:35:52;;;;;;;17.20;14.85;;;19.60;99.90;;;;;;5050703;28;20565;-84
2022/08/18 02:38:18;;;;;;;18.80;14.00;;;19.60;99.90;;;;;;5050166;28;20044;-84
2022/08/18 02:40:45;;;;;;;21.35;13.68;;;19.60;99.90;;;;;;5050050;28;20044;-84
2022/08/18 02:43:11;;;;;;;17.30;14.23;;;19.60;99.90;;;;;;5033501;28;20037;-83
2022/08/18 02:45:38;;;;;;;18.88;13.40;;;19.60;99.90;;;;;;5049433;28;20029;-84
2022/08/18 02:48:04;;;;;;;16.92;13.15;;;19.60;99.90;;;;;;5033061;28;20040;-84
2022/08/18 02:50:30;;;;;;;18.73;12.52;;;19.60;99.90;;;;;;5048266;28;20066;-84
2022/08/18 02:52:55;;;;;;;18.90;14.07;;;19.60;99.90;;;;;;5048859;28;20131;-84
2022/08/18 02:55:22;;;;;;;15.85;12.40;;;19.50;99.90;;;;;;5033425;28;20128;-84
2022/08/18 02:57:48;;;;;;;16.45;12.38;;;19.50;99.90;;;;;;5053438;28;20066;-84
2022/08/18 03:00:16;;;;;;;18.15;13.25;;;19.50;99.90;;;;;;5069981;28;20075;-84
2022/08/18 03:02:47;;;;;;;19.38;12.85;;;19.50;99.90;;;;;;5052519;28;20060;-84
2022/08/18 03:05:13;;;;;;;20.05;13.68;;;19.50;99.90;;;;;;5069422;28;20074;-84
2022/08/18 03:07:38;;;;;;;20.48;13.00;;;19.50;99.90;;;;;;5068957;28;20467;-83
2022/08/18 03:10:06;;;;;;;19.25;12.07;;;19.50;99.90;;;;;;5052417;28;20394;-84
2022/08/18 03:12:31;;;;;;;17.40;12.52;;;19.50;99.90;;;;;;5051838;28;20505;-84
2022/08/18 03:14:57;;;;;;;18.20;12.68;;;19.50;99.90;;;;;;5069746;28;20040;-83
2022/08/18 03:17:22;;;;;;;17.73;10.73;;;19.50;99.90;;;;;;5069557;28;20040;-84
2022/08/18 03:19:48;;;;;;;18.63;12.48;;;19.50;99.90;;;;;;5052992;28;20049;-84
2022/08/18 03:22:14;;;;;;;20.13;12.38;;;19.50;99.90;;;;;;5068779;28;20048;-84
2022/08/18 03:24:40;;;;;;;18.33;12.27;;;19.50;99.90;;;;;;5034972;28;20123;-84
2022/08/18 03:27:06;;;;;;;20.00;12.90;;;19.50;99.90;;;;;;5032752;28;20041;-84
2022/08/18 03:29:34;;;;;;;17.90;12.43;;;19.50;99.90;;;;;;5047658;28;20047;-84
2022/08/18 03:32:01;;;;;;;19.10;12.38;;;19.50;99.90;;;;;;5032464;28;20510;-84
2022/08/18 03:34:26;;;;;;;19.63;11.45;;;19.50;99.90;;;;;;5048569;28;20041;-83
2022/08/18 03:36:52;;;;;;;16.70;12.15;;;19.50;99.90;;;;;;5032725;28;20052;-83
2022/08/18 03:39:21;;;;;;;17.45;12.23;;;19.50;99.90;;;;;;5049645;28;20033;-84
2022/08/18 03:41:47;;;;;;;20.10;12.75;;;19.50;99.90;;;;;;5052279;28;20036;-84
2022/08/18 03:44:13;;;;;;;18.17;12.38;;;19.50;99.90;;;;;;5052879;28;20449;-83
2022/08/18 03:46:41;;;;;;;17.77;12.27;;;19.50;99.90;;;;;;5068548;28;20029;-84
2022/08/18 03:49:07;;;;;;;16.20;11.65;;;19.50;99.90;;;;;;5051520;28;20051;-84
2022/08/18 03:51:33;;;;;;;21.92;15.02;;;19.50;99.90;;;;;;5068739;28;20856;-84
2022/08/18 03:54:02;;;;;;;19.17;12.77;;;19.50;99.90;;;;;;5068516;28;20120;-84
2022/08/18 03:56:32;;;;;;;21.63;13.70;;;19.50;99.90;;;;;;5069500;28;20036;-84
2022/08/18 03:59:01;;;;;;;19.10;14.63;;;19.50;99.90;;;;;;5052284;28;20047;-84
2022/08/18 04:01:31;;;;;;;22.48;15.07;;;19.50;99.90;;;;;;5069157;28;20041;-84
2022/08/18 04:04:01;;;;;;;24.42;17.95;;;19.50;99.90;;;;;;5072356;28;20498;-84
2022/08/18 04:06:38;;;;;;;20.35;16.17;;;19.50;99.90;;;;;;5072521;28;20060;-84
2022/08/18 04:09:05;;;;;;;22.77;15.95;;;19.50;99.90;;;;;;5072564;28;20036;-83
2022/08/18 04:11:33;;;;;;;22.92;17.90;;;19.50;99.90;;;;;;5072188;28;20121;-84
2022/08/18 04:13:59;;;;;;;19.77;15.35;;;19.50;99.90;;;;;;5042683;28;20120;-84
2022/08/18 04:16:27;;;;;;;19.42;15.32;;;19.50;99.90;;;;;;5052863;28;20128;-84
2022/08/18 04:18:54;;;;;;;22.30;18.25;;;19.50;99.90;;;;;;5054057;28;20091;-84
2022/08/18 04:21:22;;;;;;;26.33;19.55;;;19.50;99.90;;;;;;5058590;28;20105;-84
2022/08/18 04:23:48;;;;;;;19.77;17.70;;;19.50;99.90;;;;;;5047677;28;20040;-84
2022/08/18 04:26:13;;;;;;;20.20;16.50;;;19.50;99.90;;;;;;5046629;28;20025;-84
2022/08/18 04:28:41;;;;;;;21.63;17.38;;;19.50;99.90;;;;;;5055652;28;20040;-84
2022/08/18 04:31:13;;;;;;;22.35;17.63;;;19.50;99.90;;;;;;5055370;28;20397;-84
2022/08/18 04:33:39;;;;;;;;;;;19.50;99.90;;;;;;5046610;28;20063;-84
2022/08/18 04:36:14;;;;;;;25.52;20.10;;;19.40;99.90;;;;;;5047655;28;19916;-84
2022/08/18 04:38:43;;;;;;;24.55;20.17;;;19.40;99.90;;;;;;5056194;28;20123;-84
2022/08/18 04:41:11;;;;;;;32.25;24.70;;;19.40;99.90;;;;;;5055808;28;20045;-84
2022/08/18 04:43:38;;;;;;;24.92;21.70;;;19.40;99.90;;;;;;5035284;28;20552;-83
2022/08/18 04:46:05;;;;;;;25.83;21.38;;;19.40;99.90;;;;;;5063831;28;20037;-84
2022/08/18 04:48:37;;;;;;;26.77;22.52;;;19.40;99.90;;;;;;5071875;28;20141;-84
2022/08/18 04:51:15;;;;;;;28.35;23.23;;;19.50;99.90;;;;;;5069494;28;20047;-84
2022/08/18 04:53:45;;;;;;;25.95;21.25;;;19.50;99.90;;;;;;5071814;28;20078;-84
2022/08/18 04:56:20;;;;;;;26.35;22.02;;;19.40;99.90;;;;;;5046377;28;20084;-84
2022/08/18 04:58:51;;;;;;;27.02;21.80;;;19.40;99.90;;;;;;5072412;28;20037;-84
2022/08/18 05:01:19;;;;;;;26.25;22.08;;;19.40;99.90;;;;;;5071719;28;20470;-83
2022/08/18 05:03:45;;;;;;;27.50;23.48;;;19.40;99.90;;;;;;5052378;28;20130;-84
2022/08/18 05:06:11;;;;;;;25.02;22.38;;;19.50;99.90;;;;;;5052023;28;20501;-84
2022/08/18 05:08:36;;;;;;;28.40;22.83;;;19.50;99.90;;;;;;5050626;28;20029;-84
2022/08/18 05:11:02;;;;;;;26.48;23.55;;;19.50;99.90;;;;;;5050968;28;20422;-84
2022/08/18 05:13:28;;;;;;;28.33;21.95;;;19.50;99.90;;;;;;5040610;28;20041;-84
2022/08/18 05:16:02;;;;;;;24.58;20.25;;;19.50;99.90;;;;;;5059842;28;20042;-83
2022/08/18 05:18:39;;;;;;;26.60;20.85;;;19.50;99.90;;;;;;5069185;28;20036;-84
2022/08/18 05:21:14;;;;;;;28.05;19.20;;;19.60;99.90;;;;;;5054292;28;20044;-83
2022/08/18 05:23:45;;;;;;;25.90;18.63;;;19.50;99.90;;;;;;5055326;28;20500;-84
2022/08/18 05:26:14;;;;;;;28.58;19.20;;;19.60;99.90;;;;;;5065374;28;20041;-83
2022/08/18 05:28:41;;;;;;;23.10;17.20;;;19.60;99.90;;;;;;5050811;28;20069;-84
2022/08/18 05:31:14;;;;;;;26.02;18.63;;;19.60;99.90;;;;;;5033554;28;20048;-84
2022/08/18 05:33:40;;;;;;;22.40;16.80;;;19.60;99.90;;;;;;5063740;28;20048;-84
2022/08/18 05:36:20;;;;;;;24.73;17.13;;;19.60;99.90;;;;;;5054913;28;20032;-84
2022/08/18 05:38:53;;;;;;;27.50;17.92;;;19.60;99.90;;;;;;5054390;28;20032;-84
2022/08/18 05:41:28;;;;;;;26.58;17.17;;;19.70;99.90;;;;;;5054609;28;20036;-84
2022/08/18 05:43:56;;;;;;;23.20;16.77;;;19.70;99.90;;;;;;5060593;28;20090;-84
2022/08/18 05:46:51;;;;;;;22.45;15.82;;;19.70;99.90;;;;;;5060770;28;20037;-84
2022/08/18 05:49:19;;;;;;;26.60;15.60;;;19.70;99.90;;;;;;5055177;28;20060;-84
2022/08/18 05:51:56;;;;;;;24.90;15.60;;;19.70;99.90;;;;;;5033512;28;20498;-84
2022/08/18 05:57:12;;;;;;;26.80;16.15;;;19.70;99.90;;;;;;5050744;28;20502;-84
2022/08/18 05:59:41;;;;;;;23.92;14.45;;;19.70;99.90;;;;;;5051581;28;20486;-84
2022/08/18 06:02:07;;;;;;;22.63;14.98;;;19.70;99.90;;;;;;5051036;28;20041;-84
2022/08/18 06:04:38;;;;;;;21.35;14.68;;;19.70;99.90;;;;;;5070006;28;20094;-84
2022/08/18 06:07:08;;;;;;;20.38;14.23;;;19.70;99.90;;;;;;5070681;28;20843;-84
2022/08/18 06:09:50;;;;;;;22.20;14.43;;;19.80;99.90;;;;;;5064379;28;20061;-85
2022/08/18 06:12:35;;;;;;;22.08;13.40;;;19.80;99.90;;;;;;5035060;28;20040;-85
2022/08/18 06:15:15;;;;;;;18.77;13.80;;;19.90;99.90;;;;;;5058459;28;20417;-84
2022/08/18 06:18:13;;;;;;;21.40;13.23;;;19.90;99.90;;;;;;5064337;28;20044;-85
2022/08/18 06:21:10;;;;;;;21.63;13.55;;;20.00;99.90;;;;;;5037789;28;20131;-85
2022/08/18 06:24:13;;;;;;;21.48;13.05;;;20.00;99.90;;;;;;5065734;28;20041;-84
2022/08/18 06:26:59;;;;;;;16.75;12.77;;;20.10;99.90;;;;;;5049833;28;20045;-85
2022/08/18 06:30:04;;;;;;;17.45;12.35;;;20.10;99.90;;;;;;5044833;28;20163;-85
2022/08/18 06:32:44;;;;;;;17.27;12.02;;;20.10;99.90;;;;;;5069614;28;20036;-85
2022/08/18 06:35:34;;;;;;;17.48;12.48;;;20.10;99.90;;;;;;5042704;28;20725;-85
2022/08/18 06:41:11;;;;;;;18.77;12.27;;;20.10;99.90;;;;;;5049670;28;20068;-85
2022/08/18 06:43:40;;;;;;;15.10;11.32;;;20.20;99.90;;;;;;5033158;28;20041;-85
2022/08/18 06:46:16;;;;;;;18.27;12.43;;;20.20;99.90;;;;;;5050438;28;20067;-85
2022/08/18 06:48:58;;;;;;;16.70;12.32;;;20.30;99.90;;;;;;5032289;28;20555;-85
2022/08/18 06:51:26;;;;;;;19.53;13.27;;;20.30;99.90;;;;;;5032873;28;20037;-85
2022/08/18 06:53:57;;;;;;;16.55;13.20;;;20.30;99.90;;;;;;5032689;28;20040;-85
2022/08/18 06:56:31;;;;;;;16.60;12.27;;;20.30;99.90;;;;;;5050117;28;20037;-85
2022/08/18 06:59:30;;;;;;;17.35;11.98;;;20.30;99.90;;;;;;5049912;28;20029;-85
2022/08/18 07:02:33;;;;;;;14.95;12.48;;;20.40;99.90;;;;;;5062014;28;20064;-85
2022/08/18 07:05:06;;;;;;;16.45;11.50;;;20.40;99.90;;;;;;5011248;28;20056;-85
2022/08/18 07:07:38;;;;;;;15.90;12.18;;;20.50;99.90;;;;;;5040549;28;20055;-85
2022/08/18 07:10:25;;;;;;;13.52;10.65;;;20.50;99.90;;;;;;5068767;28;20493;-85
2022/08/18 07:12:51;;;;;;;15.23;9.30;;;20.60;99.90;;;;;;5035029;28;20548;-85
2022/08/18 07:15:23;;;;;;;15.98;9.50;;;20.60;99.90;;;;;;5049477;28;20045;-84
2022/08/18 07:17:49;;;;;;;16.38;9.63;;;20.70;99.90;;;;;;5041421;28;20044;-85
2022/08/18 07:20:23;;;;;;;13.30;8.65;;;20.70;99.90;;;;;;5049542;28;20098;-85
2022/08/18 07:23:02;;;;;;;12.68;8.88;;;20.80;99.90;;;;;;5038538;28;20074;-85
2022/08/18 07:25:31;;;;;;;13.55;8.50;;;20.80;99.90;;;;;;5032872;28;20520;-85
2022/08/18 07:28:00;;;;;;;15.07;9.15;;;20.90;99.90;;;;;;5049015;28;20447;-84
2022/08/18 07:30:36;;;;;;;14.73;8.88;;;20.90;99.90;;;;;;5056241;28;20095;-84
2022/08/18 07:33:20;;;;;;;14.15;8.82;;;20.90;99.90;;;;;;5032292;28;20047;-84
2022/08/18 07:35:56;;;;;;;11.13;8.30;;;21.00;99.90;;;;;;5048581;28;20059;-84
2022/08/18 07:38:44;;;;;;;13.75;8.88;;;20.90;99.90;;;;;;5032244;28;20041;-84
2022/08/18 07:41:14;;;;;;;16.63;9.00;;;21.00;99.90;;;;;;5032978;28;20126;-84
2022/08/18 07:43:50;;;;;;;14.52;8.85;;;21.00;99.90;;;;;;5055706;28;20222;-84
2022/08/18 07:46:57;;;;;;;13.73;8.57;;;21.10;99.90;;;;;;5033197;28;20037;-84
2022/08/18 07:49:26;;;;;;;14.25;8.55;;;21.30;99.90;;;;;;5059431;28;20115;-84
2022/08/18 07:52:03;;;;;;;12.40;8.15;;;21.40;99.90;;;;;;5067925;28;20127;-84
2022/08/18 07:54:46;;;;;;;13.05;8.25;;;21.50;99.90;;;;;;5068027;28;20505;-85
2022/08/18 07:57:21;;;;;;;13.95;8.50;;;21.50;99.90;;;;;;5062848;28;20490;-84
2022/08/18 07:59:56;;;;;;;14.57;8.30;;;21.60;99.90;;;;;;5069754;28;20040;-84
2022/08/18 08:02:38;;;;;;;11.35;7.88;;;21.70;99.90;;;;;;5049708;28;20099;-84
2022/08/18 08:05:19;;;;;;;13.38;8.40;;;21.80;99.90;;;;;;5032708;28;20037;-84
2022/08/18 08:07:54;;;;;;;11.77;7.28;;;21.80;99.90;;;;;;5059652;28;20529;-84
2022/08/18 08:10:32;;;;;;;13.35;7.55;;;21.80;99.90;;;;;;5049620;28;20119;-85
2022/08/18 08:13:31;;;;;;;11.35;6.60;;;21.90;99.90;;;;;;5031994;28;20057;-84
2022/08/18 08:16:23;;;;;;;12.85;6.75;;;22.00;99.90;;;;;;5047167;28;20052;-84
2022/08/18 08:19:18;;;;;;;10.88;6.25;;;22.10;99.90;;;;;;5067239;28;20051;-85
2022/08/18 08:22:04;;;;;;;9.65;5.68;;;22.30;99.90;;;;;;5052334;28;20047;-85
2022/08/18 08:24:52;;;;;;;8.98;4.38;;;22.40;99.90;;;;;;5068478;28;20123;-85
2022/08/18 08:27:44;;;;;;;10.30;4.70;;;22.40;99.90;;;;;;5062913;28;20128;-84
2022/08/18 08:30:19;;;;;;;13.10;6.22;;;22.50;99.90;;;;;;5067586;28;20123;-85
2022/08/18 08:33:04;;;;;;;12.38;6.20;;;22.50;99.90;;;;;;5062893;28;20039;-85
2022/08/18 08:35:55;;;;;;;8.32;5.18;;;22.50;99.90;;;;;;5050064;28;20102;-85
2022/08/18 08:38:31;;;;;;;9.77;5.15;;;22.50;99.90;;;;;;5068844;28;20037;-85
2022/08/18 08:41:02;;;;;;;8.60;5.25;;;22.60;99.90;;;;;;5059067;28;20036;-85
2022/08/18 08:43:41;;;;;;;8.43;4.50;;;22.60;99.90;;;;;;5068716;28;20056;-85
2022/08/18 08:46:23;;;;;;;8.07;4.40;;;22.70;99.90;;;;;;5044102;28;20401;-85
2022/08/18 08:49:02;;;;;;;9.60;4.63;;;22.70;99.90;;;;;;5050604;28;20043;-85
2022/08/18 08:51:59;;;;;;;10.05;5.28;;;22.70;99.90;;;;;;5058798;28;20521;-85
2022/08/18 08:55:04;;;;;;;11.93;4.82;;;22.70;99.90;;;;;;5048327;28;20047;-85
2022/08/18 08:57:37;;;;;;;8.27;4.45;;;22.70;99.90;;;;;;5062518;28;20094;-85
2022/08/18 09:00:06;;;;;;;8.93;5.13;;;22.60;99.90;;;;;;5054893;28;20032;-85
2022/08/18 09:02:50;;;;;;;9.35;4.97;;;22.60;99.90;;;;;;5072698;28;20108;-85
2022/08/18 09:05:23;;;;;;;8.23;3.88;;;22.60;99.90;;;;;;5064100;28;20033;-85
2022/08/18 09:08:26;;;;;;;9.13;4.70;;;22.60;99.90;;;;;;5054225;28;20045;-85
2022/08/18 09:11:27;;;;;;;8.20;4.30;;;22.50;99.90;;;;;;5055607;28;20052;-85
2022/08/18 09:14:20;;;;;;;10.00;4.10;;;22.50;99.90;;;;;;5050979;28;20071;-85
2022/08/18 09:16:53;;;;;;;7.78;3.90;;;22.50;99.90;;;;;;5051184;28;20545;-85
2022/08/18 09:19:45;;;;;;;9.38;4.35;;;22.40;99.90;;;;;;5034936;28;20041;-85
2022/08/18 09:22:35;;;;;;;8.82;5.32;;;22.40;99.90;;;;;;5026158;28;20550;-84
2022/08/18 09:25:01;;;;;;;10.35;6.40;;;22.30;99.90;;;;;;5051228;28;20506;-84
2022/08/18 09:27:45;;;;;;;9.27;5.57;;;22.30;99.90;;;;;;5035200;28;20045;-85
2022/08/18 09:30:38;;;;;;;9.32;5.43;;;22.40;99.90;;;;;;5034181;28;20033;-85
2022/08/18 09:33:32;;;;;;;11.05;5.45;;;22.40;99.90;;;;;;5050912;28;20087;-85
2022/08/18 09:36:05;;;;;;;10.18;5.32;;;22.40;99.90;;;;;;5050944;28;20083;-84
2022/08/18 09:41:31;;;;;;;9.70;4.50;;;22.50;99.90;;;;;;5062636;28;20079;-85
2022/08/18 09:44:10;;;;;;;9.63;4.07;;;22.50;99.90;;;;;;5069061;28;20461;-85
2022/08/18 09:46:42;;;;;;;11.65;5.50;;;22.50;99.90;;;;;;5034947;28;20041;-84
2022/08/18 09:49:23;;;;;;;10.57;4.40;;;22.50;99.90;;;;;;5050579;28;20466;-84
2022/08/18 09:52:38;;;;;;;9.98;4.28;;;22.50;99.90;;;;;;5032779;28;20060;-84
2022/08/18 09:55:16;;;;;;;10.27;4.45;;;22.50;99.90;;;;;;5035432;28;20124;-85
2022/08/18 09:57:44;;;;;;;13.23;4.53;;;22.40;99.90;;;;;;5060576;28;20048;-84
2022/08/18 10:00:13;;;;;;;10.23;4.05;;;22.40;99.90;;;;;;5044645;28;20048;-85
2022/08/18 10:02:39;;;;;;;10.30;4.68;;;22.40;99.90;;;;;;5061218;28;20068;-84
2022/08/18 10:05:19;;;;;;;10.07;4.05;;;22.40;99.90;;;;;;5059175;28;20120;-85
2022/08/18 10:07:52;;;;;;;10.52;4.18;;;22.40;99.90;;;;;;5053607;28;20098;-84
2022/08/18 10:10:54;;;;;;;9.90;3.92;;;22.40;99.90;;;;;;5053509;28;20040;-85
2022/08/18 10:13:37;;;;;;;12.80;4.20;;;22.40;99.90;;;;;;5051886;28;20485;-85
2022/08/18 10:16:24;;;;;;;11.15;4.45;;;22.40;99.90;;;;;;5033860;28;20063;-85
2022/08/18 10:19:12;;;;;;;10.35;4.20;;;22.40;99.90;;;;;;5050373;28;20048;-84
2022/08/18 10:21:58;;;;;;;10.48;4.53;;;22.40;99.90;;;;;;5069845;28;20040;-84
2022/08/18 10:24:52;;;;;;;12.25;4.47;;;22.40;99.90;;;;;;5053564;28;20040;-84
2022/08/18 10:27:44;;;;;;;9.45;4.10;;;22.40;99.90;;;;;;5053882;28;20032;-84
2022/08/18 10:30:32;;;;;;;10.88;4.30;;;22.40;99.90;;;;;;5038830;28;20056;-85
2022/08/18 10:33:00;;;;;;;10.80;4.75;;;22.40;99.90;;;;;;5019378;28;20049;-84
2022/08/18 10:35:35;;;;;;;10.38;4.28;;;22.40;99.90;;;;;;5053157;28;20032;-85
2022/08/18 10:38:25;;;;;;;9.50;3.33;;;22.50;99.90;;;;;;5052576;28;20383;-85
2022/08/18 10:41:05;;;;;;;8.70;2.92;;;22.40;99.90;;;;;;5070428;28;20033;-84
2022/08/18 10:43:36;;;;;;;12.68;3.10;;;22.40;99.90;;;;;;5042840;28;20056;-84
2022/08/18 10:46:02;;;;;;;9.75;2.88;;;22.40;99.90;;;;;;5057885;28;20032;-85
2022/08/18 10:48:33;;;;;;;10.90;2.83;;;22.30;99.90;;;;;;5067909;28;20673;-85
2022/08/18 10:51:23;;;;;;;12.15;3.20;;;22.30;99.90;;;;;;5068362;28;20082;-85
2022/08/18 10:54:04;;;;;;;8.20;3.15;;;22.30;99.90;;;;;;5069271;28;20501;-84
2022/08/18 10:56:44;;;;;;;8.88;2.90;;;22.30;99.90;;;;;;5052106;28;20471;-85
2022/08/18 10:59:42;;;;;;;7.25;2.78;;;22.40;99.90;;;;;;5069875;28;20070;-85
2022/08/18 11:02:33;;;;;;;8.35;3.47;;;22.40;99.90;;;;;;5065318;28;20043;-85
2022/08/18 11:05:06;;;;;;;8.90;2.97;;;22.50;99.90;;;;;;5049903;28;20521;-85
2022/08/18 11:07:34;;;;;;;9.75;3.30;;;22.60;99.90;;;;;;5059731;28;20075;-84
2022/08/18 11:10:13;;;;;;;9.20;2.90;;;22.60;99.90;;;;;;5069309;28;20036;-84
2022/08/18 11:13:04;;;;;;;8.18;3.08;;;22.70;99.90;;;;;;5068900;28;20040;-85
2022/08/18 11:16:03;;;;;;;7.32;2.80;;;22.80;99.90;;;;;;5052503;28;20115;-85
2022/08/18 11:18:42;;;;;;;9.65;3.30;;;22.90;99.90;;;;;;5060109;28;20098;-85
2022/08/18 11:21:30;;;;;;;7.13;2.88;;;23.00;99.90;;;;;;5069968;28;20109;-84
2022/08/18 11:24:24;;;;;;;7.57;2.72;;;23.00;99.90;;;;;;5064921;28;20057;-85
2022/08/18 11:26:55;;;;;;;6.13;2.33;;;23.10;99.90;;;;;;5049715;28;20037;-85
2022/08/18 11:29:26;;;;;;;7.88;3.08;;;23.10;99.90;;;;;;5048584;28;20111;-85
2022/08/18 11:32:01;;;;;;;5.25;2.25;;;23.20;99.90;;;;;;5047788;28;20502;-85
2022/08/18 11:34:33;;;;;;;7.55;3.85;;;23.20;99.90;;;;;;5054309;28;20449;-85
2022/08/18 11:37:03;;;;;;;7.97;3.30;;;23.30;99.90;;;;;;5056305;28;20669;-85
2022/08/18 11:39:29;;;;;;;7.57;3.03;;;23.40;99.90;;;;;;5041389;28;20037;-85
2022/08/18 11:41:56;;;;;;;7.13;2.70;;;23.50;99.90;;;;;;5061859;28;20043;-85
2022/08/18 11:44:30;;;;;;;7.70;3.38;;;23.50;99.90;;;;;;5069691;28;20045;-85
2022/08/18 11:47:08;;;;;;;5.75;2.30;;;23.70;99.90;;;;;;5059959;28;20075;-85
2022/08/18 11:49:35;;;;;;;7.28;2.58;;;23.80;99.90;;;;;;5068793;28;20379;-85
2022/08/18 11:52:16;;;;;;;9.02;3.55;;;23.90;99.90;;;;;;5064120;28;20040;-85
2022/08/18 11:54:48;;;;;;;7.90;1.90;;;24.00;99.90;;;;;;5047174;28;20080;-85
2022/08/18 11:57:30;;;;;;;6.30;2.20;;;24.00;99.90;;;;;;5031884;28;20056;-85
2022/08/18 11:59:56;;;;;;;6.72;2.70;;;24.00;99.90;;;;;;5052663;28;20132;-85
2022/08/18 12:02:24;;;;;;;7.05;2.25;;;24.10;99.90;;;;;;5031557;28;20044;-85
2022/08/18 12:05:00;;;;;;;6.05;1.90;;;24.20;99.90;;;;;;5030806;28;20499;-85
2022/08/18 12:07:30;;;;;;;6.40;2.10;;;24.30;99.90;;;;;;5048871;28;20520;-85
2022/08/18 12:10:21;;;;;;;7.68;3.10;;;24.30;99.90;;;;;;5031955;28;20493;-85
2022/08/18 12:12:51;;;;;;;8.77;3.70;;;24.40;99.90;;;;;;5031541;28;20398;-85
2022/08/18 12:15:17;;;;;;;6.13;2.30;;;24.40;99.90;;;;;;5032023;28;20047;-85
2022/08/18 12:17:44;;;;;;;6.40;2.75;;;24.50;99.90;;;;;;5039214;28;20044;-84
2022/08/18 12:20:11;;;;;;;7.82;3.38;;;24.60;99.90;;;;;;5069236;28;20079;-85
2022/08/18 12:22:40;;;;;;;7.97;3.08;;;24.70;99.90;;;;;;5068304;28;20044;-85
2022/08/18 12:25:08;;;;;;;7.88;3.25;;;25.00;99.90;;;;;;5070393;28;20048;-85
2022/08/18 12:27:33;;;;;;;7.25;3.10;;;25.10;99.90;;;;;;5073282;28;20043;-85
2022/08/18 12:30:00;;;;;;;8.70;4.30;;;25.10;99.90;;;;;;5067040;28;20032;-85
2022/08/18 12:32:29;;;;;;;7.20;2.58;;;25.20;99.90;;;;;;5034642;28;20029;-85
2022/08/18 12:34:55;;;;;;;6.80;2.50;;;25.20;99.90;;;;;;5052305;28;20084;-85
2022/08/18 12:37:24;;;;;;;8.52;2.20;;;25.20;99.90;;;;;;5071197;28;20040;-85
2022/08/18 12:39:51;;;;;;;6.70;2.30;;;25.20;99.90;;;;;;5072079;28;20456;-85
2022/08/18 12:42:18;;;;;;;6.30;2.47;;;25.20;99.90;;;;;;5060411;28;20498;-85
2022/08/18 12:44:43;;;;;;;8.70;2.60;;;25.30;99.90;;;;;;5035969;28;20498;-85
2022/08/18 12:47:24;;;;;;;6.70;2.20;;;25.30;99.90;;;;;;5035175;28;20033;-85
2022/08/18 12:49:51;;;;;;;4.65;1.83;;;25.30;99.90;;;;;;5051868;28;20037;-85
2022/08/18 12:52:17;;;;;;;6.30;2.05;;;25.50;99.90;;;;;;5034037;28;20082;-85
2022/08/18 12:54:42;;;;;;;6.25;2.30;;;25.70;99.90;;;;;;5052194;28;20436;-85
2022/08/18 12:57:18;;;;;;;6.70;2.00;;;26.00;99.90;;;;;;5058319;28;20489;-85
2022/08/18 12:59:45;;;;;;;5.53;1.80;;;26.20;99.90;;;;;;5072373;28;20048;-85
2022/08/18 13:02:10;;;;;;;5.47;1.73;;;26.40;99.90;;;;;;5072351;28;20044;-85
2022/08/18 13:04:36;;;;;;;4.50;1.65;;;26.60;99.90;;;;;;5036859;28;20044;-85
2022/08/18 13:07:03;;;;;;;6.72;1.92;;;26.80;99.90;;;;;;5053515;28;20040;-85
2022/08/18 13:09:31;;;;;;;4.93;1.60;;;27.00;99.90;;;;;;5056447;28;20028;-85
2022/08/18 13:11:57;;;;;;;5.88;1.60;;;27.30;99.90;;;;;;5053927;28;20682;-85
2022/08/18 13:14:22;;;;;;;6.47;1.80;;;27.50;99.90;;;;;;5072529;28;20043;-85
2022/08/18 13:16:48;;;;;;;5.78;1.73;;;27.60;99.90;;;;;;5071240;28;20416;-85
2022/08/18 13:19:14;;;;;;;8.27;2.08;;;27.60;99.90;;;;;;5071776;28;20036;-85
2022/08/18 13:21:40;;;;;;;9.10;2.55;;;27.60;99.90;;;;;;5071884;28;20032;-85
2022/08/18 13:24:06;;;;;;;6.95;1.90;;;27.70;99.90;;;;;;5071604;28;20128;-85